Shkoder, Albania
Current Conditions -  °F | °C
As of 9:00 PM on Thursday 23 Oct 2014 (Local Time) from LYPG Reporting Station
Broken Clouds Broken Clouds  
Wind Chill: 46°   Ceiling: 8000
Heat Index: 46°   Visibility: 6mi
Dew Point: 45°   Wind: 3mph
Humidity: 93%   Direction: 20°NNE
Pressure: 29.71"   Gusts: NA
Location:  42.07°N, 19.51°E
Report Text: LYPG 231900Z 02003KT 9999 FEW050 BKN080 08/07 Q1006 NOSIG
Loading
Personal Weather Stations






























Interactive Weather Map
Tropical Storm Tracking
New forecast layout! Learn more

10-Day Weather Forecast

Advertisements
Track Severe Weather on mobile